Weerspreuk van de week. Wanneer de oostenwind tegen den avond gaat liggen, waait hij ligt de volgende dag opnieuw.
Het weer levert geen direct gevaar op.    Er zijn geen waarschuwingen afgegeven.


Onweer radar Meer informatie blitzortung!


Regen radar Meer informatie rain snow radar


Bekijk deze sites ook eens:

FPL Automotive (TIP)

Autostekkers.nl (TIP)

Over Luyksgestel

De Kempen, mijn omgeving

BOL.com

Weerstation Noordbergum

Inktweb

Weerstation Hapert

Weerstation Hoogeloon

Weerstation Son&Breugel

Weerstation Castaert

Smartphonehoesjes

Weerstation Tilburg Reeshof

Weerstation Scheulder

Weerverwachting Samos

Samos actueel

Weerwoord (forum)

Griekenlandforum

Vakantie naar Samos

Zomerzon

Canon

Beleef de lente

Wolven in Nederland



METAR rapporten vliegvelden

   
EBAW - Antwerp
Gewijzigd: 22-07-2019 16:20
Helder  
Helder  
   Wind: ZW 16.7 km/h
Wind: ZW 16.7 km/h
Temperatuur: 28°C
Dauwpunt: 12°C
Vochtigheid: 37%
Barometer: 1023 hPa
Zicht: meer dan 10 km
Bewolking: Helder
EBAW 221420Z 23009KT 190V280 CAVOK 28/12 Q1023 NOSIG
EBLG - Liège
Gewijzigd: 22-07-2019 16:20
Helder  
Helder  
   Wind: Westen 13 km/h
Wind: Westen 13 km/h
Temperatuur: 26°C
Dauwpunt: 13°C
Vochtigheid: 45%
Barometer: 1024 hPa
Zicht: meer dan 10 km
Bewolking: Helder
EBLG 221420Z 27007KT 230V320 CAVOK 26/13 Q1024 NOSIG
EBCV - Mons/Bergen
Gewijzigd: 22-07-2019 15:55
Helder  
Helder  
   Wind: WZW 7.4 km/h
Wind: WZW 7.4 km/h
Temperatuur: 28°C
Gevoelstemperatuur: 28°C
Dauwpunt: 13°C
Vochtigheid: 40%
Barometer: 1023 hPa
Bewolking: Helder
Zicht: meer dan 10 km
Bewolking: Helder
EBCV 221355Z AUTO 25004KT 9999 NCD 28/13 Q1023 BLU
EHBK - Maastricht
Gewijzigd: 22-07-2019 16:25
Gedeeltelijk bewolkt  
Gedeeltelijk bewolkt  
   Wind: ZW 13 km/h
Wind: ZW 13 km/h
Temperatuur: 28°C
Gevoelstemperatuur: 28°C
Dauwpunt: 15°C
Vochtigheid: 45%
Barometer: 1023 hPa
Bewolking: Gedeeltelijk bewolkt
Zicht: meer dan 10 km
Bewolking: Gedeeltelijk bewolkt
EHBK 221425Z AUTO 23007KT 190V280 9999 NSC 28/15 Q1023 NOSIG
ELLX - Luxemburg
Gewijzigd: 22-07-2019 16:20
Helder  
Helder  
   Wind: varieert 11.1 km/h
Wind: varieert 11.1 km/h
Temperatuur: 29°C
Dauwpunt: 11°C
Vochtigheid: 33%
Barometer: 1024 hPa
Zicht: meer dan 10 km
Bewolking: Helder
ELLX 221420Z VRB06KT CAVOK 29/11 Q1024 NOSIG
EBOS - Oostende
Gewijzigd: 22-07-2019 16:20
Helder  
Helder  
   Wind: Westen 24.1 km/h
Wind: Westen 24.1 km/h
Temperatuur: 24°C
Dauwpunt: 17°C
Vochtigheid: 65%
Barometer: 1023 hPa
Zicht: meer dan 10 km
Bewolking: Helder
EBOS 221420Z 27013KT CAVOK 24/17 Q1023 NOSIG

Script ontwikkeld door  Saratoga-weather.org Aangepast voor de template door  Weerstation Leuven

U vindt ons ook hier:

Het Weer Aktueel

UK Metoffice

European Weather Network

Weather Underground

AWEKAS



Lekker winkelen zonder zorgen - Gratis verzending en retour